< Typhoon 198422 1984 Season Typhoon 198424 >
Typhoon 198423 (WARREN)
General InformationTrack Information on Google MapsDetailed Wind InformationList of All Images || Disaster Info.ResourceGoogle EarthGE AnimationAtom FeedGeoJSON
Detalied Best Track (Time Zone = UTC)
Year Month Day Hour Lat. Long. Pressure (hPa) Wind (kt) Class Image Chart
1984 10 23 00 12.0 116.5 1004 0 2 Image Chart
1984 10 23 06 12.5 116.5 1000 0 2 Image Chart
1984 10 23 12 12.5 116.5 998 0 2 Image Chart
1984 10 23 18 12.5 116.5 998 0 2 Image Chart
1984 10 24 00 13.0 116.5 998 0 2 Image Chart
1984 10 24 06 13.4 116.2 996 45 3 Image Chart
1984 10 24 12 13.6 115.6 992 45 3 Image Chart
1984 10 24 18 14.3 115.5 990 45 3 Image Chart
1984 10 25 00 14.7 116.2 990 45 3 Image Chart
1984 10 25 06 14.1 115.6 980 55 4 Image Chart
1984 10 25 12 14.2 115.4 980 55 4 Image Chart
1984 10 25 18 14.4 115.1 980 55 4 Image Chart
1984 10 26 00 14.6 114.7 980 60 4 Image Chart
1984 10 26 06 14.5 114.4 980 60 4 Image Chart
1984 10 26 12 14.6 114.3 980 60 4 Image Chart
1984 10 26 18 14.8 114.4 980 60 4 Image Chart
1984 10 27 00 14.8 114.5 980 60 4 Image Chart
1984 10 27 06 15.5 115.0 980 60 4 Image Chart
1984 10 27 12 15.2 115.5 975 55 4 Image Chart
1984 10 27 18 15.1 115.9 975 60 4 Image Chart
1984 10 28 00 15.2 116.9 975 60 4 Image Chart
1984 10 28 06 15.6 117.8 980 60 4 Image Chart
1984 10 28 12 15.7 118.1 980 60 4 Image Chart
1984 10 28 18 15.7 118.1 980 60 4 Image Chart
1984 10 29 00 15.8 118.1 980 60 4 Image Chart
1984 10 29 06 15.6 117.7 980 60 4 Image Chart
1984 10 29 12 15.5 117.2 985 60 4 Image Chart
1984 10 29 18 15.5 116.9 985 60 4 Image Chart
1984 10 30 00 15.4 116.7 990 55 4 Image Chart
1984 10 30 06 15.4 116.3 996 50 4 Image Chart
1984 10 30 12 15.3 115.3 996 45 3 Image Chart
1984 10 30 18 15.0 114.7 996 45 3 Image Chart
1984 10 31 00 14.7 114.2 996 40 3 Image Chart
1984 10 31 06 14.4 113.5 1000 35 3 Image Chart
1984 10 31 12 13.9 112.8 1002 0 2 Image Chart
1984 10 31 18 13.5 112.5 1002 0 2 Image Chart
1984 11 1 00 13.5 111.5 1002 0 2 Image Chart
1984 11 1 06 13.5 111.0 1002 0 2 Image Chart
1984 11 1 12 13.0 110.0 1002 0 2 Image Chart
1984 11 1 18 13.0 108.5 1004 0 2 Image Chart
1984 11 2 00 13.0 107.0 1004 0 2 Image Chart
1984 11 2 06 13.0 106.0 1006 0 2 Image Chart
1984 11 2 12 13.0 105.0 1006 0 2 Image Chart
Japan Meteorological Agency Best Track Data | Correction Date : 1992-10-21
< Typhoon 198422 1984 Season Typhoon 198424 >

Help